sensor_id;sensor_type;location;lat;lon;timestamp;P1;durP1;ratioP1;P2;durP2;ratioP2
4585;SDS011;2305;50.118;8.952;2023-06-24T00:02:11;9.90;;;5.03;;
4585;SDS011;2305;50.118;8.952;2023-06-24T00:04:40;6.17;;;5.30;;
4585;SDS011;2305;50.118;8.952;2023-06-24T00:07:12;8.57;;;5.13;;
4585;SDS011;2305;50.118;8.952;2023-06-24T00:09:46;7.13;;;5.33;;
4585;SDS011;2305;50.118;8.952;2023-06-24T00:12:14;9.23;;;4.07;;
4585;SDS011;2305;50.118;8.952;2023-06-24T00:14:46;8.33;;;5.37;;
4585;SDS011;2305;50.118;8.952;2023-06-24T00:17:15;13.13;;;5.10;;
4585;SDS011;2305;50.118;8.952;2023-06-24T00:19:44;7.30;;;4.93;;
4585;SDS011;2305;50.118;8.952;2023-06-24T00:22:20;6.00;;;4.87;;
4585;SDS011;2305;50.118;8.952;2023-06-24T00:24:53;8.20;;;5.60;;
4585;SDS011;2305;50.118;8.952;2023-06-24T00:27:23;7.70;;;5.47;;
4585;SDS011;2305;50.118;8.952;2023-06-24T00:29:53;7.53;;;4.70;;
4585;SDS011;2305;50.118;8.952;2023-06-24T00:32:22;6.40;;;4.60;;
4585;SDS011;2305;50.118;8.952;2023-06-24T00:34:50;6.77;;;5.40;;
4585;SDS011;2305;50.118;8.952;2023-06-24T00:37:23;8.13;;;5.97;;
4585;SDS011;2305;50.118;8.952;2023-06-24T00:39:54;7.07;;;4.23;;
4585;SDS011;2305;50.118;8.952;2023-06-24T00:42:22;5.97;;;5.10;;
4585;SDS011;2305;50.118;8.952;2023-06-24T00:44:50;7.13;;;4.30;;
4585;SDS011;2305;50.118;8.952;2023-06-24T00:47:18;8.90;;;5.30;;
4585;SDS011;2305;50.118;8.952;2023-06-24T00:49:49;6.67;;;5.10;;
4585;SDS011;2305;50.118;8.952;2023-06-24T00:52:19;8.00;;;5.30;;
4585;SDS011;2305;50.118;8.952;2023-06-24T00:54:50;6.43;;;4.70;;
4585;SDS011;2305;50.118;8.952;2023-06-24T00:57:20;5.30;;;4.53;;
4585;SDS011;2305;50.118;8.952;2023-06-24T01:01:28;6.93;;;5.30;;
4585;SDS011;2305;50.118;8.952;2023-06-24T01:04:00;7.50;;;5.47;;
4585;SDS011;2305;50.118;8.952;2023-06-24T01:06:31;10.67;;;5.33;;
4585;SDS011;2305;50.118;8.952;2023-06-24T01:09:01;8.27;;;5.83;;
4585;SDS011;2305;50.118;8.952;2023-06-24T01:11:31;7.97;;;5.40;;
4585;SDS011;2305;50.118;8.952;2023-06-24T01:14:00;7.40;;;5.87;;
4585;SDS011;2305;50.118;8.952;2023-06-24T01:16:32;7.13;;;4.70;;
4585;SDS011;2305;50.118;8.952;2023-06-24T01:19:11;7.43;;;5.23;;
4585;SDS011;2305;50.118;8.952;2023-06-24T01:22:10;7.10;;;5.13;;
4585;SDS011;2305;50.118;8.952;2023-06-24T01:25:03;7.73;;;6.00;;
4585;SDS011;2305;50.118;8.952;2023-06-24T01:27:46;7.23;;;5.13;;
4585;SDS011;2305;50.118;8.952;2023-06-24T01:30:28;7.00;;;5.50;;
4585;SDS011;2305;50.118;8.952;2023-06-24T01:33:12;6.90;;;4.90;;
4585;SDS011;2305;50.118;8.952;2023-06-24T01:35:45;9.30;;;5.60;;
4585;SDS011;2305;50.118;8.952;2023-06-24T01:38:18;8.03;;;5.87;;
4585;SDS011;2305;50.118;8.952;2023-06-24T01:40:50;6.97;;;4.37;;
4585;SDS011;2305;50.118;8.952;2023-06-24T01:43:21;14.53;;;5.83;;
4585;SDS011;2305;50.118;8.952;2023-06-24T01:45:52;7.07;;;5.50;;
4585;SDS011;2305;50.118;8.952;2023-06-24T01:48:27;6.30;;;5.10;;
4585;SDS011;2305;50.118;8.952;2023-06-24T01:51:01;8.40;;;5.50;;
4585;SDS011;2305;50.118;8.952;2023-06-24T01:53:37;10.27;;;5.93;;
4585;SDS011;2305;50.118;8.952;2023-06-24T01:56:10;7.07;;;5.13;;
4585;SDS011;2305;50.118;8.952;2023-06-24T01:58:44;8.07;;;5.20;;
4585;SDS011;2305;50.118;8.952;2023-06-24T02:01:13;8.70;;;6.17;;
4585;SDS011;2305;50.118;8.952;2023-06-24T02:03:44;5.20;;;4.50;;
4585;SDS011;2305;50.118;8.952;2023-06-24T02:06:14;6.77;;;5.40;;
4585;SDS011;2305;50.118;8.952;2023-06-24T02:08:44;5.90;;;5.03;;
4585;SDS011;2305;50.118;8.952;2023-06-24T02:11:16;5.50;;;4.77;;
4585;SDS011;2305;50.118;8.952;2023-06-24T02:13:45;7.33;;;5.60;;
4585;SDS011;2305;50.118;8.952;2023-06-24T02:16:15;8.73;;;5.47;;
4585;SDS011;2305;50.118;8.952;2023-06-24T02:18:46;8.67;;;5.63;;
4585;SDS011;2305;50.118;8.952;2023-06-24T02:21:17;6.37;;;5.07;;
4585;SDS011;2305;50.118;8.952;2023-06-24T02:23:46;7.27;;;5.63;;
4585;SDS011;2305;50.118;8.952;2023-06-24T02:26:15;6.40;;;5.30;;
4585;SDS011;2305;50.118;8.952;2023-06-24T02:28:45;6.80;;;5.47;;
4585;SDS011;2305;50.118;8.952;2023-06-24T02:31:14;6.90;;;5.33;;
4585;SDS011;2305;50.118;8.952;2023-06-24T02:33:43;11.33;;;5.10;;
4585;SDS011;2305;50.118;8.952;2023-06-24T02:36:13;7.07;;;5.70;;
4585;SDS011;2305;50.118;8.952;2023-06-24T02:38:44;6.80;;;5.37;;
4585;SDS011;2305;50.118;8.952;2023-06-24T02:41:13;7.00;;;4.63;;
4585;SDS011;2305;50.118;8.952;2023-06-24T02:43:41;9.00;;;4.77;;
4585;SDS011;2305;50.118;8.952;2023-06-24T02:46:09;11.40;;;5.77;;
4585;SDS011;2305;50.118;8.952;2023-06-24T02:48:42;7.70;;;5.13;;
4585;SDS011;2305;50.118;8.952;2023-06-24T02:51:14;6.60;;;5.43;;
4585;SDS011;2305;50.118;8.952;2023-06-24T02:53:43;6.50;;;5.10;;
4585;SDS011;2305;50.118;8.952;2023-06-24T02:56:15;13.50;;;6.10;;
4585;SDS011;2305;50.118;8.952;2023-06-24T02:58:49;7.40;;;5.33;;
4585;SDS011;2305;50.118;8.952;2023-06-24T03:01:22;6.47;;;5.00;;
4585;SDS011;2305;50.118;8.952;2023-06-24T03:03:54;5.33;;;4.40;;
4585;SDS011;2305;50.118;8.952;2023-06-24T03:06:24;8.80;;;4.93;;
4585;SDS011;2305;50.118;8.952;2023-06-24T03:08:58;9.43;;;5.50;;
4585;SDS011;2305;50.118;8.952;2023-06-24T03:11:27;17.23;;;5.70;;
4585;SDS011;2305;50.118;8.952;2023-06-24T03:14:00;5.27;;;4.60;;
4585;SDS011;2305;50.118;8.952;2023-06-24T03:16:37;6.33;;;4.67;;
4585;SDS011;2305;50.118;8.952;2023-06-24T03:19:11;5.83;;;4.77;;
4585;SDS011;2305;50.118;8.952;2023-06-24T03:21:42;6.77;;;5.07;;
4585;SDS011;2305;50.118;8.952;2023-06-24T03:24:12;5.77;;;4.67;;
4585;SDS011;2305;50.118;8.952;2023-06-24T03:26:43;7.47;;;5.00;;
4585;SDS011;2305;50.118;8.952;2023-06-24T03:29:13;15.17;;;5.80;;
4585;SDS011;2305;50.118;8.952;2023-06-24T03:31:50;6.80;;;5.07;;
4585;SDS011;2305;50.118;8.952;2023-06-24T03:34:22;6.20;;;5.00;;
4585;SDS011;2305;50.118;8.952;2023-06-24T03:36:53;8.10;;;6.23;;
4585;SDS011;2305;50.118;8.952;2023-06-24T03:39:22;6.57;;;5.30;;
4585;SDS011;2305;50.118;8.952;2023-06-24T03:41:51;9.30;;;5.30;;
4585;SDS011;2305;50.118;8.952;2023-06-24T03:44:19;6.90;;;5.50;;
4585;SDS011;2305;50.118;8.952;2023-06-24T03:46:48;12.40;;;6.43;;
4585;SDS011;2305;50.118;8.952;2023-06-24T03:49:16;9.47;;;5.07;;
4585;SDS011;2305;50.118;8.952;2023-06-24T03:51:44;7.70;;;5.57;;
4585;SDS011;2305;50.118;8.952;2023-06-24T03:54:14;10.13;;;4.90;;
4585;SDS011;2305;50.118;8.952;2023-06-24T03:56:43;10.37;;;5.77;;
4585;SDS011;2305;50.118;8.952;2023-06-24T03:59:12;9.40;;;6.10;;
4585;SDS011;2305;50.118;8.952;2023-06-24T04:01:40;8.23;;;5.43;;
4585;SDS011;2305;50.118;8.952;2023-06-24T04:04:08;9.10;;;6.00;;
4585;SDS011;2305;50.118;8.952;2023-06-24T04:06:38;11.80;;;5.20;;
4585;SDS011;2305;50.118;8.952;2023-06-24T04:09:06;6.90;;;5.60;;
4585;SDS011;2305;50.118;8.952;2023-06-24T04:11:37;7.10;;;6.00;;
4585;SDS011;2305;50.118;8.952;2023-06-24T04:14:05;6.73;;;5.53;;
4585;SDS011;2305;50.118;8.952;2023-06-24T04:16:36;7.60;;;5.43;;
4585;SDS011;2305;50.118;8.952;2023-06-24T04:19:04;7.30;;;5.77;;
4585;SDS011;2305;50.118;8.952;2023-06-24T04:21:33;7.63;;;5.43;;
4585;SDS011;2305;50.118;8.952;2023-06-24T04:24:01;11.87;;;6.83;;
4585;SDS011;2305;50.118;8.952;2023-06-24T04:26:29;7.50;;;5.57;;
4585;SDS011;2305;50.118;8.952;2023-06-24T04:28:59;12.00;;;5.80;;
4585;SDS011;2305;50.118;8.952;2023-06-24T04:31:27;6.63;;;5.03;;
4585;SDS011;2305;50.118;8.952;2023-06-24T04:33:55;9.20;;;5.40;;
4585;SDS011;2305;50.118;8.952;2023-06-24T04:36:23;10.20;;;5.90;;
4585;SDS011;2305;50.118;8.952;2023-06-24T04:38:52;13.10;;;5.77;;
4585;SDS011;2305;50.118;8.952;2023-06-24T04:41:21;9.77;;;6.57;;
4585;SDS011;2305;50.118;8.952;2023-06-24T04:43:50;10.60;;;6.70;;
4585;SDS011;2305;50.118;8.952;2023-06-24T04:46:19;8.40;;;6.40;;
4585;SDS011;2305;50.118;8.952;2023-06-24T04:48:48;8.33;;;6.20;;
4585;SDS011;2305;50.118;8.952;2023-06-24T04:51:16;8.70;;;5.47;;
4585;SDS011;2305;50.118;8.952;2023-06-24T04:53:48;9.67;;;5.80;;
4585;SDS011;2305;50.118;8.952;2023-06-24T04:56:17;10.33;;;6.67;;
4585;SDS011;2305;50.118;8.952;2023-06-24T04:58:45;11.73;;;6.00;;
4585;SDS011;2305;50.118;8.952;2023-06-24T05:01:13;10.20;;;6.20;;
4585;SDS011;2305;50.118;8.952;2023-06-24T05:03:43;9.50;;;5.90;;
4585;SDS011;2305;50.118;8.952;2023-06-24T05:06:11;15.73;;;6.60;;
4585;SDS011;2305;50.118;8.952;2023-06-24T05:08:40;6.47;;;5.70;;
4585;SDS011;2305;50.118;8.952;2023-06-24T05:11:08;6.73;;;5.43;;
4585;SDS011;2305;50.118;8.952;2023-06-24T05:13:36;8.33;;;5.77;;
4585;SDS011;2305;50.118;8.952;2023-06-24T05:16:05;7.13;;;5.70;;
4585;SDS011;2305;50.118;8.952;2023-06-24T05:18:33;9.00;;;5.70;;
4585;SDS011;2305;50.118;8.952;2023-06-24T05:21:03;9.17;;;6.10;;
4585;SDS011;2305;50.118;8.952;2023-06-24T05:23:31;9.70;;;6.10;;
4585;SDS011;2305;50.118;8.952;2023-06-24T05:26:02;7.10;;;5.70;;
4585;SDS011;2305;50.118;8.952;2023-06-24T05:28:31;6.73;;;6.03;;
4585;SDS011;2305;50.118;8.952;2023-06-24T05:30:59;7.97;;;5.30;;
4585;SDS011;2305;50.118;8.952;2023-06-24T05:33:28;7.10;;;5.80;;
4585;SDS011;2305;50.118;8.952;2023-06-24T05:35:56;8.33;;;6.33;;
4585;SDS011;2305;50.118;8.952;2023-06-24T05:38:28;10.47;;;6.07;;
4585;SDS011;2305;50.118;8.952;2023-06-24T05:40:57;9.00;;;5.87;;
4585;SDS011;2305;50.118;8.952;2023-06-24T05:43:27;10.03;;;6.00;;
4585;SDS011;2305;50.118;8.952;2023-06-24T05:45:55;7.47;;;5.77;;
4585;SDS011;2305;50.118;8.952;2023-06-24T05:48:23;7.80;;;6.10;;
4585;SDS011;2305;50.118;8.952;2023-06-24T05:50:51;9.00;;;5.40;;
4585;SDS011;2305;50.118;8.952;2023-06-24T05:53:22;6.33;;;5.10;;
4585;SDS011;2305;50.118;8.952;2023-06-24T05:55:52;7.30;;;5.90;;
4585;SDS011;2305;50.118;8.952;2023-06-24T05:58:23;11.20;;;5.60;;
4585;SDS011;2305;50.118;8.952;2023-06-24T06:00:51;11.20;;;5.93;;
4585;SDS011;2305;50.118;8.952;2023-06-24T06:03:21;8.30;;;5.87;;
4585;SDS011;2305;50.118;8.952;2023-06-24T06:05:50;7.07;;;5.83;;
4585;SDS011;2305;50.118;8.952;2023-06-24T06:08:18;7.07;;;5.60;;
4585;SDS011;2305;50.118;8.952;2023-06-24T06:10:46;8.00;;;5.03;;
4585;SDS011;2305;50.118;8.952;2023-06-24T06:13:16;9.53;;;5.67;;
4585;SDS011;2305;50.118;8.952;2023-06-24T06:15:43;5.83;;;4.97;;
4585;SDS011;2305;50.118;8.952;2023-06-24T06:18:12;6.20;;;4.90;;
4585;SDS011;2305;50.118;8.952;2023-06-24T06:20:43;6.60;;;5.10;;
4585;SDS011;2305;50.118;8.952;2023-06-24T06:23:11;11.90;;;6.03;;
4585;SDS011;2305;50.118;8.952;2023-06-24T06:25:39;10.10;;;5.13;;
4585;SDS011;2305;50.118;8.952;2023-06-24T06:28:07;11.83;;;6.03;;
4585;SDS011;2305;50.118;8.952;2023-06-24T06:30:40;7.97;;;5.17;;
4585;SDS011;2305;50.118;8.952;2023-06-24T06:33:08;8.90;;;5.53;;
4585;SDS011;2305;50.118;8.952;2023-06-24T06:35:36;9.40;;;7.80;;
4585;SDS011;2305;50.118;8.952;2023-06-24T06:38:04;9.40;;;6.47;;
4585;SDS011;2305;50.118;8.952;2023-06-24T06:40:32;8.80;;;5.70;;
4585;SDS011;2305;50.118;8.952;2023-06-24T06:43:01;12.70;;;5.00;;
4585;SDS011;2305;50.118;8.952;2023-06-24T06:45:29;13.00;;;5.93;;
4585;SDS011;2305;50.118;8.952;2023-06-24T06:47:59;8.30;;;6.20;;
4585;SDS011;2305;50.118;8.952;2023-06-24T06:50:28;8.37;;;5.93;;
4585;SDS011;2305;50.118;8.952;2023-06-24T06:52:56;7.87;;;6.20;;
4585;SDS011;2305;50.118;8.952;2023-06-24T06:55:24;9.80;;;6.70;;
4585;SDS011;2305;50.118;8.952;2023-06-24T06:57:54;13.10;;;6.30;;
4585;SDS011;2305;50.118;8.952;2023-06-24T07:00:23;11.30;;;7.03;;
4585;SDS011;2305;50.118;8.952;2023-06-24T07:02:51;8.30;;;6.00;;
4585;SDS011;2305;50.118;8.952;2023-06-24T07:05:21;8.40;;;5.87;;
4585;SDS011;2305;50.118;8.952;2023-06-24T07:07:49;8.90;;;5.77;;
4585;SDS011;2305;50.118;8.952;2023-06-24T07:10:17;8.43;;;6.77;;
4585;SDS011;2305;50.118;8.952;2023-06-24T07:12:45;7.53;;;6.10;;
4585;SDS011;2305;50.118;8.952;2023-06-24T07:15:13;7.90;;;5.93;;
4585;SDS011;2305;50.118;8.952;2023-06-24T07:17:45;8.03;;;5.50;;
4585;SDS011;2305;50.118;8.952;2023-06-24T07:20:13;8.33;;;5.73;;
4585;SDS011;2305;50.118;8.952;2023-06-24T07:22:43;8.37;;;6.20;;
4585;SDS011;2305;50.118;8.952;2023-06-24T07:25:11;7.03;;;5.00;;
4585;SDS011;2305;50.118;8.952;2023-06-24T07:27:39;9.20;;;6.27;;
4585;SDS011;2305;50.118;8.952;2023-06-24T07:30:08;5.73;;;4.83;;
4585;SDS011;2305;50.118;8.952;2023-06-24T07:32:38;9.10;;;5.43;;
4585;SDS011;2305;50.118;8.952;2023-06-24T07:35:08;7.67;;;4.97;;
4585;SDS011;2305;50.118;8.952;2023-06-24T07:37:36;10.40;;;5.50;;
4585;SDS011;2305;50.118;8.952;2023-06-24T07:40:08;6.87;;;5.00;;
4585;SDS011;2305;50.118;8.952;2023-06-24T07:42:37;8.63;;;4.47;;
4585;SDS011;2305;50.118;8.952;2023-06-24T07:45:05;6.67;;;4.60;;
4585;SDS011;2305;50.118;8.952;2023-06-24T07:47:34;6.97;;;5.77;;
4585;SDS011;2305;50.118;8.952;2023-06-24T07:50:02;7.93;;;5.53;;
4585;SDS011;2305;50.118;8.952;2023-06-24T07:52:32;7.33;;;5.20;;
4585;SDS011;2305;50.118;8.952;2023-06-24T07:55:00;7.87;;;5.73;;
4585;SDS011;2305;50.118;8.952;2023-06-24T07:57:31;5.73;;;4.83;;
4585;SDS011;2305;50.118;8.952;2023-06-24T07:59:59;6.97;;;5.10;;
4585;SDS011;2305;50.118;8.952;2023-06-24T08:02:49;6.70;;;5.17;;
4585;SDS011;2305;50.118;8.952;2023-06-24T08:05:17;7.23;;;5.00;;
4585;SDS011;2305;50.118;8.952;2023-06-24T08:07:46;7.63;;;4.83;;
4585;SDS011;2305;50.118;8.952;2023-06-24T08:10:15;7.03;;;5.20;;
4585;SDS011;2305;50.118;8.952;2023-06-24T08:12:44;7.60;;;4.83;;
4585;SDS011;2305;50.118;8.952;2023-06-24T08:15:13;6.33;;;4.20;;
4585;SDS011;2305;50.118;8.952;2023-06-24T08:17:41;9.27;;;4.50;;
4585;SDS011;2305;50.118;8.952;2023-06-24T08:20:09;6.30;;;4.67;;
4585;SDS011;2305;50.118;8.952;2023-06-24T08:22:38;5.00;;;4.47;;
4585;SDS011;2305;50.118;8.952;2023-06-24T08:25:07;6.07;;;5.13;;
4585;SDS011;2305;50.118;8.952;2023-06-24T08:27:35;7.77;;;5.27;;
4585;SDS011;2305;50.118;8.952;2023-06-24T08:30:06;5.30;;;4.53;;
4585;SDS011;2305;50.118;8.952;2023-06-24T08:32:35;5.90;;;4.70;;
4585;SDS011;2305;50.118;8.952;2023-06-24T08:35:06;5.80;;;4.77;;
4585;SDS011;2305;50.118;8.952;2023-06-24T08:37:35;6.53;;;5.10;;
4585;SDS011;2305;50.118;8.952;2023-06-24T08:40:04;7.70;;;5.33;;
4585;SDS011;2305;50.118;8.952;2023-06-24T08:42:34;12.93;;;5.37;;
4585;SDS011;2305;50.118;8.952;2023-06-24T08:45:02;10.40;;;4.80;;
4585;SDS011;2305;50.118;8.952;2023-06-24T08:47:32;6.43;;;4.93;;
4585;SDS011;2305;50.118;8.952;2023-06-24T08:50:08;7.07;;;5.10;;
4585;SDS011;2305;50.118;8.952;2023-06-24T08:52:41;5.23;;;4.73;;
4585;SDS011;2305;50.118;8.952;2023-06-24T08:55:12;6.37;;;5.20;;
4585;SDS011;2305;50.118;8.952;2023-06-24T08:57:41;4.93;;;4.30;;
4585;SDS011;2305;50.118;8.952;2023-06-24T09:00:10;6.53;;;5.17;;
4585;SDS011;2305;50.118;8.952;2023-06-24T09:02:40;5.07;;;4.20;;
4585;SDS011;2305;50.118;8.952;2023-06-24T09:05:10;4.47;;;4.03;;
4585;SDS011;2305;50.118;8.952;2023-06-24T09:07:38;8.90;;;4.60;;
4585;SDS011;2305;50.118;8.952;2023-06-24T09:10:06;7.20;;;3.70;;
4585;SDS011;2305;50.118;8.952;2023-06-24T09:12:37;6.93;;;3.90;;
4585;SDS011;2305;50.118;8.952;2023-06-24T09:15:06;7.03;;;3.70;;
4585;SDS011;2305;50.118;8.952;2023-06-24T09:17:44;5.40;;;3.90;;
4585;SDS011;2305;50.118;8.952;2023-06-24T09:20:13;4.67;;;3.50;;
4585;SDS011;2305;50.118;8.952;2023-06-24T09:22:46;5.43;;;4.20;;
4585;SDS011;2305;50.118;8.952;2023-06-24T09:25:16;5.27;;;4.50;;
4585;SDS011;2305;50.118;8.952;2023-06-24T09:27:47;5.37;;;4.00;;
4585;SDS011;2305;50.118;8.952;2023-06-24T09:30:19;5.43;;;3.90;;
4585;SDS011;2305;50.118;8.952;2023-06-24T09:32:50;5.03;;;3.97;;
4585;SDS011;2305;50.118;8.952;2023-06-24T09:35:24;9.30;;;3.70;;
4585;SDS011;2305;50.118;8.952;2023-06-24T09:37:53;7.43;;;4.47;;
4585;SDS011;2305;50.118;8.952;2023-06-24T09:40:22;6.80;;;4.67;;
4585;SDS011;2305;50.118;8.952;2023-06-24T09:42:51;5.80;;;4.70;;
4585;SDS011;2305;50.118;8.952;2023-06-24T09:45:24;5.00;;;4.10;;
4585;SDS011;2305;50.118;8.952;2023-06-24T09:47:56;4.80;;;3.80;;
4585;SDS011;2305;50.118;8.952;2023-06-24T09:50:25;8.93;;;4.50;;
4585;SDS011;2305;50.118;8.952;2023-06-24T09:52:54;5.80;;;4.40;;
4585;SDS011;2305;50.118;8.952;2023-06-24T09:55:24;8.13;;;4.40;;
4585;SDS011;2305;50.118;8.952;2023-06-24T09:57:53;6.80;;;4.63;;
4585;SDS011;2305;50.118;8.952;2023-06-24T10:00:22;5.47;;;4.80;;
4585;SDS011;2305;50.118;8.952;2023-06-24T10:02:53;4.17;;;3.77;;
4585;SDS011;2305;50.118;8.952;2023-06-24T10:05:27;5.70;;;4.10;;
4585;SDS011;2305;50.118;8.952;2023-06-24T10:07:56;3.83;;;3.43;;
4585;SDS011;2305;50.118;8.952;2023-06-24T10:10:24;4.93;;;3.70;;
4585;SDS011;2305;50.118;8.952;2023-06-24T10:12:55;4.93;;;4.30;;
4585;SDS011;2305;50.118;8.952;2023-06-24T10:15:28;10.13;;;4.03;;
4585;SDS011;2305;50.118;8.952;2023-06-24T10:17:58;5.00;;;3.53;;
4585;SDS011;2305;50.118;8.952;2023-06-24T10:20:43;6.80;;;4.53;;
4585;SDS011;2305;50.118;8.952;2023-06-24T10:23:15;7.60;;;3.90;;
4585;SDS011;2305;50.118;8.952;2023-06-24T10:25:43;6.27;;;4.20;;
4585;SDS011;2305;50.118;8.952;2023-06-24T10:28:15;6.20;;;4.50;;
4585;SDS011;2305;50.118;8.952;2023-06-24T10:30:52;5.70;;;4.10;;
4585;SDS011;2305;50.118;8.952;2023-06-24T10:33:23;6.37;;;4.00;;
4585;SDS011;2305;50.118;8.952;2023-06-24T10:35:56;5.73;;;3.90;;
4585;SDS011;2305;50.118;8.952;2023-06-24T10:38:24;3.93;;;3.37;;
4585;SDS011;2305;50.118;8.952;2023-06-24T10:40:52;5.73;;;3.23;;
4585;SDS011;2305;50.118;8.952;2023-06-24T10:43:27;4.33;;;3.50;;
4585;SDS011;2305;50.118;8.952;2023-06-24T10:46:07;5.87;;;3.63;;
4585;SDS011;2305;50.118;8.952;2023-06-24T10:48:43;5.23;;;4.70;;
4585;SDS011;2305;50.118;8.952;2023-06-24T10:51:12;4.20;;;3.37;;
4585;SDS011;2305;50.118;8.952;2023-06-24T10:53:40;3.40;;;3.10;;
4585;SDS011;2305;50.118;8.952;2023-06-24T10:56:09;3.70;;;3.40;;
4585;SDS011;2305;50.118;8.952;2023-06-24T10:58:38;6.30;;;3.37;;
4585;SDS011;2305;50.118;8.952;2023-06-24T11:01:08;4.40;;;3.63;;
4585;SDS011;2305;50.118;8.952;2023-06-24T11:03:39;4.53;;;3.10;;
4585;SDS011;2305;50.118;8.952;2023-06-24T11:06:10;7.60;;;3.57;;
4585;SDS011;2305;50.118;8.952;2023-06-24T11:08:45;5.10;;;3.53;;
4585;SDS011;2305;50.118;8.952;2023-06-24T11:11:18;4.10;;;3.40;;
4585;SDS011;2305;50.118;8.952;2023-06-24T11:13:48;3.67;;;2.90;;
4585;SDS011;2305;50.118;8.952;2023-06-24T11:16:19;5.73;;;2.77;;
4585;SDS011;2305;50.118;8.952;2023-06-24T11:18:48;5.47;;;3.00;;
4585;SDS011;2305;50.118;8.952;2023-06-24T11:21:27;5.73;;;2.80;;
4585;SDS011;2305;50.118;8.952;2023-06-24T11:24:01;3.60;;;2.77;;
4585;SDS011;2305;50.118;8.952;2023-06-24T11:26:30;4.03;;;3.10;;
4585;SDS011;2305;50.118;8.952;2023-06-24T11:28:58;4.50;;;3.40;;
4585;SDS011;2305;50.118;8.952;2023-06-24T11:31:27;8.60;;;3.00;;
4585;SDS011;2305;50.118;8.952;2023-06-24T11:33:55;3.73;;;3.03;;
4585;SDS011;2305;50.118;8.952;2023-06-24T11:36:23;3.17;;;2.80;;
4585;SDS011;2305;50.118;8.952;2023-06-24T11:38:53;5.23;;;3.30;;
4585;SDS011;2305;50.118;8.952;2023-06-24T11:41:23;5.13;;;2.93;;
4585;SDS011;2305;50.118;8.952;2023-06-24T11:43:54;3.00;;;2.70;;
4585;SDS011;2305;50.118;8.952;2023-06-24T11:46:25;3.50;;;2.90;;
4585;SDS011;2305;50.118;8.952;2023-06-24T11:49:02;3.60;;;3.20;;
4585;SDS011;2305;50.118;8.952;2023-06-24T11:51:31;4.60;;;3.10;;
4585;SDS011;2305;50.118;8.952;2023-06-24T11:53:59;13.47;;;3.53;;
4585;SDS011;2305;50.118;8.952;2023-06-24T11:56:35;3.53;;;2.50;;
4585;SDS011;2305;50.118;8.952;2023-06-24T11:59:04;8.53;;;3.03;;
4585;SDS011;2305;50.118;8.952;2023-06-24T12:01:34;9.20;;;2.83;;
4585;SDS011;2305;50.118;8.952;2023-06-24T12:04:09;3.97;;;3.00;;
4585;SDS011;2305;50.118;8.952;2023-06-24T12:06:39;3.63;;;3.27;;
4585;SDS011;2305;50.118;8.952;2023-06-24T12:09:08;4.50;;;3.03;;
4585;SDS011;2305;50.118;8.952;2023-06-24T12:11:38;3.40;;;3.00;;
4585;SDS011;2305;50.118;8.952;2023-06-24T12:14:06;3.53;;;3.10;;
4585;SDS011;2305;50.118;8.952;2023-06-24T12:16:35;3.20;;;2.90;;
4585;SDS011;2305;50.118;8.952;2023-06-24T12:19:03;8.63;;;3.27;;
4585;SDS011;2305;50.118;8.952;2023-06-24T12:21:31;3.90;;;3.20;;
4585;SDS011;2305;50.118;8.952;2023-06-24T12:24:00;7.33;;;2.87;;
4585;SDS011;2305;50.118;8.952;2023-06-24T12:26:28;4.07;;;3.47;;
4585;SDS011;2305;50.118;8.952;2023-06-24T12:28:57;4.47;;;3.30;;
4585;SDS011;2305;50.118;8.952;2023-06-24T12:31:30;3.40;;;3.03;;
4585;SDS011;2305;50.118;8.952;2023-06-24T12:33:58;3.80;;;3.03;;
4585;SDS011;2305;50.118;8.952;2023-06-24T12:36:26;3.40;;;3.10;;
4585;SDS011;2305;50.118;8.952;2023-06-24T12:38:55;4.00;;;2.93;;
4585;SDS011;2305;50.118;8.952;2023-06-24T12:41:23;6.43;;;3.23;;
4585;SDS011;2305;50.118;8.952;2023-06-24T12:43:58;3.87;;;3.27;;
4585;SDS011;2305;50.118;8.952;2023-06-24T12:46:26;9.20;;;3.10;;
4585;SDS011;2305;50.118;8.952;2023-06-24T12:48:57;4.23;;;2.73;;
4585;SDS011;2305;50.118;8.952;2023-06-24T12:51:28;3.60;;;3.00;;
4585;SDS011;2305;50.118;8.952;2023-06-24T12:53:57;2.90;;;2.50;;
4585;SDS011;2305;50.118;8.952;2023-06-24T12:56:25;3.53;;;2.70;;
4585;SDS011;2305;50.118;8.952;2023-06-24T12:58:53;8.87;;;2.53;;
4585;SDS011;2305;50.118;8.952;2023-06-24T13:01:22;3.83;;;2.90;;
4585;SDS011;2305;50.118;8.952;2023-06-24T13:03:50;4.60;;;3.17;;
4585;SDS011;2305;50.118;8.952;2023-06-24T13:06:22;4.43;;;2.90;;
4585;SDS011;2305;50.118;8.952;2023-06-24T13:08:50;4.60;;;2.90;;
4585;SDS011;2305;50.118;8.952;2023-06-24T13:11:18;4.23;;;2.80;;
4585;SDS011;2305;50.118;8.952;2023-06-24T13:13:46;4.03;;;3.33;;
4585;SDS011;2305;50.118;8.952;2023-06-24T13:16:15;3.47;;;2.63;;
4585;SDS011;2305;50.118;8.952;2023-06-24T13:18:45;4.10;;;2.70;;
4585;SDS011;2305;50.118;8.952;2023-06-24T13:21:16;3.87;;;3.00;;
4585;SDS011;2305;50.118;8.952;2023-06-24T13:23:47;4.53;;;3.63;;
4585;SDS011;2305;50.118;8.952;2023-06-24T13:26:16;3.30;;;3.00;;
4585;SDS011;2305;50.118;8.952;2023-06-24T13:28:44;3.97;;;2.77;;
4585;SDS011;2305;50.118;8.952;2023-06-24T13:31:13;6.03;;;3.30;;
4585;SDS011;2305;50.118;8.952;2023-06-24T13:33:42;3.50;;;3.10;;
4585;SDS011;2305;50.118;8.952;2023-06-24T13:36:28;3.80;;;2.27;;
4585;SDS011;2305;50.118;8.952;2023-06-24T13:39:02;3.10;;;2.80;;
4585;SDS011;2305;50.118;8.952;2023-06-24T13:41:33;3.13;;;2.83;;
4585;SDS011;2305;50.118;8.952;2023-06-24T13:44:04;3.90;;;3.00;;
4585;SDS011;2305;50.118;8.952;2023-06-24T13:46:33;5.27;;;3.23;;
4585;SDS011;2305;50.118;8.952;2023-06-24T13:49:02;3.80;;;3.33;;
4585;SDS011;2305;50.118;8.952;2023-06-24T13:51:36;3.70;;;2.60;;
4585;SDS011;2305;50.118;8.952;2023-06-24T13:54:04;4.20;;;3.20;;
4585;SDS011;2305;50.118;8.952;2023-06-24T13:56:32;8.33;;;2.70;;
4585;SDS011;2305;50.118;8.952;2023-06-24T13:59:01;7.80;;;2.73;;
4585;SDS011;2305;50.118;8.952;2023-06-24T14:01:29;4.10;;;3.30;;
4585;SDS011;2305;50.118;8.952;2023-06-24T14:03:58;3.47;;;2.53;;
4585;SDS011;2305;50.118;8.952;2023-06-24T14:06:26;5.83;;;3.10;;
4585;SDS011;2305;50.118;8.952;2023-06-24T14:08:56;5.17;;;2.70;;
4585;SDS011;2305;50.118;8.952;2023-06-24T14:11:24;5.20;;;3.00;;
4585;SDS011;2305;50.118;8.952;2023-06-24T14:13:52;4.43;;;3.37;;
4585;SDS011;2305;50.118;8.952;2023-06-24T14:16:22;3.03;;;2.50;;
4585;SDS011;2305;50.118;8.952;2023-06-24T14:18:50;4.40;;;2.77;;
4585;SDS011;2305;50.118;8.952;2023-06-24T14:21:18;3.10;;;2.67;;
4585;SDS011;2305;50.118;8.952;2023-06-24T14:23:46;3.07;;;2.80;;
4585;SDS011;2305;50.118;8.952;2023-06-24T14:26:19;4.20;;;3.10;;
4585;SDS011;2305;50.118;8.952;2023-06-24T14:28:47;3.60;;;3.30;;
4585;SDS011;2305;50.118;8.952;2023-06-24T14:31:15;4.80;;;2.70;;
4585;SDS011;2305;50.118;8.952;2023-06-24T14:33:45;3.53;;;3.23;;
4585;SDS011;2305;50.118;8.952;2023-06-24T14:36:14;5.07;;;4.00;;
4585;SDS011;2305;50.118;8.952;2023-06-24T14:38:42;4.80;;;3.00;;
4585;SDS011;2305;50.118;8.952;2023-06-24T14:41:11;3.67;;;3.20;;
4585;SDS011;2305;50.118;8.952;2023-06-24T14:43:43;6.50;;;4.37;;
4585;SDS011;2305;50.118;8.952;2023-06-24T14:46:11;3.67;;;3.20;;
4585;SDS011;2305;50.118;8.952;2023-06-24T14:48:41;4.77;;;3.37;;
4585;SDS011;2305;50.118;8.952;2023-06-24T14:51:09;5.30;;;3.50;;
4585;SDS011;2305;50.118;8.952;2023-06-24T14:53:38;4.53;;;3.33;;
4585;SDS011;2305;50.118;8.952;2023-06-24T14:56:06;6.47;;;3.40;;
4585;SDS011;2305;50.118;8.952;2023-06-24T14:58:35;5.60;;;3.10;;
4585;SDS011;2305;50.118;8.952;2023-06-24T15:01:04;3.30;;;2.70;;
4585;SDS011;2305;50.118;8.952;2023-06-24T15:03:32;3.33;;;3.03;;
4585;SDS011;2305;50.118;8.952;2023-06-24T15:06:00;6.33;;;2.80;;
4585;SDS011;2305;50.118;8.952;2023-06-24T15:08:31;3.43;;;2.87;;
4585;SDS011;2305;50.118;8.952;2023-06-24T15:10:59;4.73;;;2.77;;
4585;SDS011;2305;50.118;8.952;2023-06-24T15:13:29;3.40;;;3.10;;
4585;SDS011;2305;50.118;8.952;2023-06-24T15:15:58;3.27;;;2.97;;
4585;SDS011;2305;50.118;8.952;2023-06-24T15:18:28;2.93;;;2.60;;
4585;SDS011;2305;50.118;8.952;2023-06-24T15:20:59;2.80;;;2.47;;
4585;SDS011;2305;50.118;8.952;2023-06-24T15:23:28;2.65;;;2.45;;
4585;SDS011;2305;50.118;8.952;2023-06-24T15:25:57;2.78;;;2.33;;
4585;SDS011;2305;50.118;8.952;2023-06-24T15:28:27;2.25;;;2.15;;
4585;SDS011;2305;50.118;8.952;2023-06-24T15:30:58;2.42;;;2.22;;
4585;SDS011;2305;50.118;8.952;2023-06-24T15:33:26;1.90;;;1.80;;
4585;SDS011;2305;50.118;8.952;2023-06-24T15:35:56;2.33;;;2.13;;